sensor_id;sensor_type;location;lat;lon;timestamp;P1;durP1;ratioP1;P2;durP2;ratioP2
18510;SDS011;9384;48.044;11.616;2022-12-11T00:02:06;42.97;;;18.43;;
18510;SDS011;9384;48.044;11.616;2022-12-11T00:04:33;43.93;;;19.83;;
18510;SDS011;9384;48.044;11.616;2022-12-11T00:07:00;39.83;;;17.70;;
18510;SDS011;9384;48.044;11.616;2022-12-11T00:09:26;39.00;;;18.60;;
18510;SDS011;9384;48.044;11.616;2022-12-11T00:11:53;39.87;;;18.73;;
18510;SDS011;9384;48.044;11.616;2022-12-11T00:14:20;37.67;;;17.13;;
18510;SDS011;9384;48.044;11.616;2022-12-11T00:16:48;42.67;;;19.40;;
18510;SDS011;9384;48.044;11.616;2022-12-11T00:19:15;38.33;;;16.60;;
18510;SDS011;9384;48.044;11.616;2022-12-11T00:21:42;42.93;;;18.13;;
18510;SDS011;9384;48.044;11.616;2022-12-11T00:24:09;38.23;;;17.40;;
18510;SDS011;9384;48.044;11.616;2022-12-11T00:26:36;41.13;;;18.57;;
18510;SDS011;9384;48.044;11.616;2022-12-11T00:29:03;37.13;;;17.53;;
18510;SDS011;9384;48.044;11.616;2022-12-11T00:31:32;39.67;;;17.97;;
18510;SDS011;9384;48.044;11.616;2022-12-11T00:34:01;35.67;;;16.50;;
18510;SDS011;9384;48.044;11.616;2022-12-11T00:36:28;37.97;;;17.80;;
18510;SDS011;9384;48.044;11.616;2022-12-11T00:38:54;45.20;;;18.97;;
18510;SDS011;9384;48.044;11.616;2022-12-11T00:41:22;36.50;;;16.47;;
18510;SDS011;9384;48.044;11.616;2022-12-11T00:43:49;42.00;;;18.47;;
18510;SDS011;9384;48.044;11.616;2022-12-11T00:46:16;37.23;;;16.63;;
18510;SDS011;9384;48.044;11.616;2022-12-11T00:48:43;37.27;;;17.47;;
18510;SDS011;9384;48.044;11.616;2022-12-11T00:51:11;39.30;;;17.20;;
18510;SDS011;9384;48.044;11.616;2022-12-11T00:53:38;38.97;;;17.90;;
18510;SDS011;9384;48.044;11.616;2022-12-11T00:56:09;36.13;;;16.33;;
18510;SDS011;9384;48.044;11.616;2022-12-11T00:58:37;35.37;;;15.67;;
18510;SDS011;9384;48.044;11.616;2022-12-11T01:01:04;29.40;;;15.27;;
18510;SDS011;9384;48.044;11.616;2022-12-11T01:03:33;36.90;;;16.13;;
18510;SDS011;9384;48.044;11.616;2022-12-11T01:06:00;38.57;;;17.93;;
18510;SDS011;9384;48.044;11.616;2022-12-11T01:08:28;35.70;;;15.17;;
18510;SDS011;9384;48.044;11.616;2022-12-11T01:11:02;31.90;;;14.93;;
18510;SDS011;9384;48.044;11.616;2022-12-11T01:13:29;32.13;;;15.80;;
18510;SDS011;9384;48.044;11.616;2022-12-11T01:15:56;32.37;;;14.77;;
18510;SDS011;9384;48.044;11.616;2022-12-11T01:18:24;33.57;;;15.63;;
18510;SDS011;9384;48.044;11.616;2022-12-11T01:20:52;30.13;;;15.07;;
18510;SDS011;9384;48.044;11.616;2022-12-11T01:23:19;31.80;;;15.63;;
18510;SDS011;9384;48.044;11.616;2022-12-11T01:25:47;30.27;;;14.83;;
18510;SDS011;9384;48.044;11.616;2022-12-11T01:28:14;30.67;;;14.93;;
18510;SDS011;9384;48.044;11.616;2022-12-11T01:30:41;28.90;;;14.30;;
18510;SDS011;9384;48.044;11.616;2022-12-11T01:33:08;35.60;;;15.70;;
18510;SDS011;9384;48.044;11.616;2022-12-11T01:35:37;33.80;;;15.03;;
18510;SDS011;9384;48.044;11.616;2022-12-11T01:38:04;32.27;;;15.60;;
18510;SDS011;9384;48.044;11.616;2022-12-11T01:40:30;32.13;;;15.63;;
18510;SDS011;9384;48.044;11.616;2022-12-11T01:42:59;36.67;;;16.00;;
18510;SDS011;9384;48.044;11.616;2022-12-11T01:45:38;31.27;;;14.93;;
18510;SDS011;9384;48.044;11.616;2022-12-11T01:48:09;30.83;;;15.67;;
18510;SDS011;9384;48.044;11.616;2022-12-11T01:50:38;32.13;;;14.77;;
18510;SDS011;9384;48.044;11.616;2022-12-11T01:53:09;27.87;;;13.67;;
18510;SDS011;9384;48.044;11.616;2022-12-11T01:55:40;31.93;;;14.57;;
18510;SDS011;9384;48.044;11.616;2022-12-11T01:58:08;31.80;;;15.20;;
18510;SDS011;9384;48.044;11.616;2022-12-11T02:00:37;29.17;;;14.37;;
18510;SDS011;9384;48.044;11.616;2022-12-11T02:03:04;25.53;;;13.37;;
18510;SDS011;9384;48.044;11.616;2022-12-11T02:05:31;28.63;;;13.47;;
18510;SDS011;9384;48.044;11.616;2022-12-11T02:07:58;26.37;;;13.07;;
18510;SDS011;9384;48.044;11.616;2022-12-11T02:10:29;30.17;;;14.70;;
18510;SDS011;9384;48.044;11.616;2022-12-11T02:13:06;30.20;;;14.27;;
18510;SDS011;9384;48.044;11.616;2022-12-11T02:15:40;31.80;;;14.10;;
18510;SDS011;9384;48.044;11.616;2022-12-11T02:18:13;26.53;;;12.63;;
18510;SDS011;9384;48.044;11.616;2022-12-11T02:20:47;29.37;;;12.70;;
18510;SDS011;9384;48.044;11.616;2022-12-11T02:23:32;23.67;;;12.90;;
18510;SDS011;9384;48.044;11.616;2022-12-11T02:26:20;28.40;;;14.30;;
18510;SDS011;9384;48.044;11.616;2022-12-11T02:29:00;23.93;;;12.60;;
18510;SDS011;9384;48.044;11.616;2022-12-11T02:31:31;25.87;;;13.13;;
18510;SDS011;9384;48.044;11.616;2022-12-11T02:34:03;26.73;;;13.73;;
18510;SDS011;9384;48.044;11.616;2022-12-11T02:36:36;28.80;;;12.93;;
18510;SDS011;9384;48.044;11.616;2022-12-11T02:39:06;31.30;;;13.90;;
18510;SDS011;9384;48.044;11.616;2022-12-11T02:41:36;24.73;;;12.67;;
18510;SDS011;9384;48.044;11.616;2022-12-11T02:44:07;28.13;;;14.80;;
18510;SDS011;9384;48.044;11.616;2022-12-11T02:46:37;28.40;;;14.17;;
18510;SDS011;9384;48.044;11.616;2022-12-11T02:49:05;34.33;;;14.20;;
18510;SDS011;9384;48.044;11.616;2022-12-11T02:51:35;30.47;;;14.83;;
18510;SDS011;9384;48.044;11.616;2022-12-11T02:54:04;26.10;;;13.23;;
18510;SDS011;9384;48.044;11.616;2022-12-11T02:56:35;29.93;;;14.10;;
18510;SDS011;9384;48.044;11.616;2022-12-11T02:59:09;29.60;;;13.57;;
18510;SDS011;9384;48.044;11.616;2022-12-11T03:01:40;24.67;;;13.40;;
18510;SDS011;9384;48.044;11.616;2022-12-11T03:04:07;30.73;;;14.97;;
18510;SDS011;9384;48.044;11.616;2022-12-11T03:06:35;26.70;;;14.03;;
18510;SDS011;9384;48.044;11.616;2022-12-11T03:09:05;27.17;;;13.47;;
18510;SDS011;9384;48.044;11.616;2022-12-11T03:11:33;25.77;;;13.33;;
18510;SDS011;9384;48.044;11.616;2022-12-11T03:14:00;29.30;;;13.90;;
18510;SDS011;9384;48.044;11.616;2022-12-11T03:16:29;27.67;;;12.53;;
18510;SDS011;9384;48.044;11.616;2022-12-11T03:19:05;28.20;;;13.97;;
18510;SDS011;9384;48.044;11.616;2022-12-11T03:21:39;27.60;;;14.07;;
18510;SDS011;9384;48.044;11.616;2022-12-11T03:24:12;26.97;;;13.47;;
18510;SDS011;9384;48.044;11.616;2022-12-11T03:26:43;22.50;;;12.03;;
18510;SDS011;9384;48.044;11.616;2022-12-11T03:29:16;24.73;;;13.03;;
18510;SDS011;9384;48.044;11.616;2022-12-11T03:31:47;24.30;;;11.77;;
18510;SDS011;9384;48.044;11.616;2022-12-11T03:34:19;24.73;;;12.00;;
18510;SDS011;9384;48.044;11.616;2022-12-11T03:36:50;22.73;;;11.87;;
18510;SDS011;9384;48.044;11.616;2022-12-11T03:39:21;26.17;;;13.43;;
18510;SDS011;9384;48.044;11.616;2022-12-11T03:41:54;23.50;;;12.10;;
18510;SDS011;9384;48.044;11.616;2022-12-11T03:44:22;24.93;;;12.77;;
18510;SDS011;9384;48.044;11.616;2022-12-11T03:46:53;20.53;;;11.40;;
18510;SDS011;9384;48.044;11.616;2022-12-11T03:49:21;22.80;;;11.90;;
18510;SDS011;9384;48.044;11.616;2022-12-11T03:51:52;23.80;;;11.27;;
18510;SDS011;9384;48.044;11.616;2022-12-11T03:54:21;26.03;;;12.57;;
18510;SDS011;9384;48.044;11.616;2022-12-11T03:56:49;30.50;;;12.63;;
18510;SDS011;9384;48.044;11.616;2022-12-11T03:59:19;24.10;;;11.97;;
18510;SDS011;9384;48.044;11.616;2022-12-11T04:01:46;24.70;;;12.67;;
18510;SDS011;9384;48.044;11.616;2022-12-11T04:04:14;25.63;;;11.97;;
18510;SDS011;9384;48.044;11.616;2022-12-11T04:06:41;21.93;;;11.87;;
18510;SDS011;9384;48.044;11.616;2022-12-11T04:09:08;23.30;;;11.90;;
18510;SDS011;9384;48.044;11.616;2022-12-11T04:11:35;23.80;;;12.47;;
18510;SDS011;9384;48.044;11.616;2022-12-11T04:14:03;27.27;;;13.33;;
18510;SDS011;9384;48.044;11.616;2022-12-11T04:16:49;22.43;;;11.53;;
18510;SDS011;9384;48.044;11.616;2022-12-11T04:19:17;20.67;;;11.77;;
18510;SDS011;9384;48.044;11.616;2022-12-11T04:22:02;26.20;;;13.23;;
18510;SDS011;9384;48.044;11.616;2022-12-11T04:24:52;26.33;;;12.60;;
18510;SDS011;9384;48.044;11.616;2022-12-11T04:27:19;19.73;;;11.00;;
18510;SDS011;9384;48.044;11.616;2022-12-11T04:29:59;24.87;;;11.67;;
18510;SDS011;9384;48.044;11.616;2022-12-11T04:32:26;23.57;;;12.60;;
18510;SDS011;9384;48.044;11.616;2022-12-11T04:34:55;24.97;;;12.17;;
18510;SDS011;9384;48.044;11.616;2022-12-11T04:37:21;23.47;;;11.80;;
18510;SDS011;9384;48.044;11.616;2022-12-11T04:39:48;23.30;;;12.47;;
18510;SDS011;9384;48.044;11.616;2022-12-11T04:42:15;21.10;;;11.40;;
18510;SDS011;9384;48.044;11.616;2022-12-11T04:44:42;21.47;;;11.87;;
18510;SDS011;9384;48.044;11.616;2022-12-11T04:47:09;23.20;;;11.57;;
18510;SDS011;9384;48.044;11.616;2022-12-11T04:49:36;27.30;;;11.90;;
18510;SDS011;9384;48.044;11.616;2022-12-11T04:52:04;23.70;;;12.10;;
18510;SDS011;9384;48.044;11.616;2022-12-11T04:54:31;21.03;;;11.50;;
18510;SDS011;9384;48.044;11.616;2022-12-11T04:56:58;23.43;;;12.07;;
18510;SDS011;9384;48.044;11.616;2022-12-11T04:59:25;24.10;;;11.27;;
18510;SDS011;9384;48.044;11.616;2022-12-11T05:01:52;24.10;;;12.10;;
18510;SDS011;9384;48.044;11.616;2022-12-11T05:04:19;23.17;;;11.63;;
18510;SDS011;9384;48.044;11.616;2022-12-11T05:06:47;22.97;;;11.53;;
18510;SDS011;9384;48.044;11.616;2022-12-11T05:09:16;25.67;;;12.47;;
18510;SDS011;9384;48.044;11.616;2022-12-11T05:11:43;25.07;;;11.90;;
18510;SDS011;9384;48.044;11.616;2022-12-11T05:14:09;26.47;;;12.40;;
18510;SDS011;9384;48.044;11.616;2022-12-11T05:16:36;22.73;;;11.90;;
18510;SDS011;9384;48.044;11.616;2022-12-11T05:19:03;25.73;;;12.07;;
18510;SDS011;9384;48.044;11.616;2022-12-11T05:21:30;20.90;;;11.13;;
18510;SDS011;9384;48.044;11.616;2022-12-11T05:23:57;27.40;;;12.63;;
18510;SDS011;9384;48.044;11.616;2022-12-11T05:26:25;25.53;;;13.07;;
18510;SDS011;9384;48.044;11.616;2022-12-11T05:28:52;23.83;;;12.27;;
18510;SDS011;9384;48.044;11.616;2022-12-11T05:31:20;26.83;;;13.30;;
18510;SDS011;9384;48.044;11.616;2022-12-11T05:33:49;26.77;;;13.70;;
18510;SDS011;9384;48.044;11.616;2022-12-11T05:36:16;30.07;;;12.73;;
18510;SDS011;9384;48.044;11.616;2022-12-11T05:38:45;30.13;;;13.97;;
18510;SDS011;9384;48.044;11.616;2022-12-11T05:41:13;24.37;;;12.90;;
18510;SDS011;9384;48.044;11.616;2022-12-11T05:43:42;26.23;;;12.40;;
18510;SDS011;9384;48.044;11.616;2022-12-11T05:46:11;29.63;;;13.77;;
18510;SDS011;9384;48.044;11.616;2022-12-11T05:48:39;29.77;;;13.17;;
18510;SDS011;9384;48.044;11.616;2022-12-11T05:51:07;24.37;;;12.20;;
18510;SDS011;9384;48.044;11.616;2022-12-11T05:53:35;28.60;;;14.07;;
18510;SDS011;9384;48.044;11.616;2022-12-11T05:56:03;27.33;;;13.47;;
18510;SDS011;9384;48.044;11.616;2022-12-11T05:58:32;26.80;;;12.97;;
18510;SDS011;9384;48.044;11.616;2022-12-11T06:01:01;27.57;;;12.47;;
18510;SDS011;9384;48.044;11.616;2022-12-11T06:03:31;26.23;;;13.33;;
18510;SDS011;9384;48.044;11.616;2022-12-11T06:06:00;27.90;;;14.10;;
18510;SDS011;9384;48.044;11.616;2022-12-11T06:08:26;28.43;;;14.33;;
18510;SDS011;9384;48.044;11.616;2022-12-11T06:10:53;26.10;;;13.47;;
18510;SDS011;9384;48.044;11.616;2022-12-11T06:13:20;25.93;;;12.47;;
18510;SDS011;9384;48.044;11.616;2022-12-11T06:15:47;24.80;;;12.47;;
18510;SDS011;9384;48.044;11.616;2022-12-11T06:18:15;25.90;;;12.10;;
18510;SDS011;9384;48.044;11.616;2022-12-11T06:20:42;25.73;;;11.57;;
18510;SDS011;9384;48.044;11.616;2022-12-11T06:23:09;26.13;;;12.60;;
18510;SDS011;9384;48.044;11.616;2022-12-11T06:25:37;26.77;;;12.87;;
18510;SDS011;9384;48.044;11.616;2022-12-11T06:28:04;24.43;;;13.03;;
18510;SDS011;9384;48.044;11.616;2022-12-11T06:30:31;24.93;;;12.37;;
18510;SDS011;9384;48.044;11.616;2022-12-11T06:32:58;27.00;;;12.73;;
18510;SDS011;9384;48.044;11.616;2022-12-11T06:35:26;22.57;;;11.67;;
18510;SDS011;9384;48.044;11.616;2022-12-11T06:37:53;24.57;;;12.07;;
18510;SDS011;9384;48.044;11.616;2022-12-11T06:40:20;26.50;;;11.60;;
18510;SDS011;9384;48.044;11.616;2022-12-11T06:42:47;23.23;;;11.70;;
18510;SDS011;9384;48.044;11.616;2022-12-11T06:45:13;24.20;;;11.37;;
18510;SDS011;9384;48.044;11.616;2022-12-11T06:47:40;22.20;;;11.17;;
18510;SDS011;9384;48.044;11.616;2022-12-11T06:50:08;25.50;;;11.20;;
18510;SDS011;9384;48.044;11.616;2022-12-11T06:52:37;22.83;;;11.03;;
18510;SDS011;9384;48.044;11.616;2022-12-11T06:55:04;24.60;;;11.70;;
18510;SDS011;9384;48.044;11.616;2022-12-11T06:57:32;21.33;;;11.27;;
18510;SDS011;9384;48.044;11.616;2022-12-11T06:59:59;22.10;;;11.53;;
18510;SDS011;9384;48.044;11.616;2022-12-11T07:02:26;20.93;;;10.70;;
18510;SDS011;9384;48.044;11.616;2022-12-11T07:04:53;18.27;;;9.70;;
18510;SDS011;9384;48.044;11.616;2022-12-11T07:07:19;23.40;;;10.83;;
18510;SDS011;9384;48.044;11.616;2022-12-11T07:09:47;24.80;;;10.70;;
18510;SDS011;9384;48.044;11.616;2022-12-11T07:12:15;18.10;;;10.63;;
18510;SDS011;9384;48.044;11.616;2022-12-11T07:14:42;20.73;;;11.10;;
18510;SDS011;9384;48.044;11.616;2022-12-11T07:17:09;21.33;;;10.30;;
18510;SDS011;9384;48.044;11.616;2022-12-11T07:19:36;21.30;;;10.60;;
18510;SDS011;9384;48.044;11.616;2022-12-11T07:22:04;20.47;;;10.50;;
18510;SDS011;9384;48.044;11.616;2022-12-11T07:24:31;24.00;;;10.87;;
18510;SDS011;9384;48.044;11.616;2022-12-11T07:26:59;19.87;;;11.27;;
18510;SDS011;9384;48.044;11.616;2022-12-11T07:29:26;19.97;;;10.27;;
18510;SDS011;9384;48.044;11.616;2022-12-11T07:31:53;19.30;;;9.97;;
18510;SDS011;9384;48.044;11.616;2022-12-11T07:34:20;22.53;;;10.77;;
18510;SDS011;9384;48.044;11.616;2022-12-11T07:36:47;19.40;;;9.37;;
18510;SDS011;9384;48.044;11.616;2022-12-11T07:39:13;21.10;;;10.93;;
18510;SDS011;9384;48.044;11.616;2022-12-11T07:41:40;25.47;;;12.53;;
18510;SDS011;9384;48.044;11.616;2022-12-11T07:44:08;22.57;;;10.97;;
18510;SDS011;9384;48.044;11.616;2022-12-11T07:46:35;21.70;;;10.20;;
18510;SDS011;9384;48.044;11.616;2022-12-11T07:49:03;19.53;;;10.33;;
18510;SDS011;9384;48.044;11.616;2022-12-11T07:51:31;20.53;;;10.87;;
18510;SDS011;9384;48.044;11.616;2022-12-11T07:54:00;18.23;;;10.00;;
18510;SDS011;9384;48.044;11.616;2022-12-11T07:56:29;20.73;;;10.53;;
18510;SDS011;9384;48.044;11.616;2022-12-11T07:58:57;21.57;;;10.63;;
18510;SDS011;9384;48.044;11.616;2022-12-11T08:01:27;18.07;;;9.87;;
18510;SDS011;9384;48.044;11.616;2022-12-11T08:03:55;18.17;;;9.33;;
18510;SDS011;9384;48.044;11.616;2022-12-11T08:06:23;17.93;;;9.37;;
18510;SDS011;9384;48.044;11.616;2022-12-11T08:08:52;23.33;;;11.73;;
18510;SDS011;9384;48.044;11.616;2022-12-11T08:11:19;22.33;;;10.57;;
18510;SDS011;9384;48.044;11.616;2022-12-11T08:13:46;20.60;;;10.27;;
18510;SDS011;9384;48.044;11.616;2022-12-11T08:16:13;18.03;;;9.77;;
18510;SDS011;9384;48.044;11.616;2022-12-11T08:18:42;19.00;;;10.10;;
18510;SDS011;9384;48.044;11.616;2022-12-11T08:21:10;20.00;;;10.37;;
18510;SDS011;9384;48.044;11.616;2022-12-11T08:23:39;22.00;;;11.10;;
18510;SDS011;9384;48.044;11.616;2022-12-11T08:26:08;20.13;;;10.07;;
18510;SDS011;9384;48.044;11.616;2022-12-11T08:28:36;18.40;;;10.40;;
18510;SDS011;9384;48.044;11.616;2022-12-11T08:31:03;18.07;;;9.73;;
18510;SDS011;9384;48.044;11.616;2022-12-11T08:33:31;18.70;;;10.33;;
18510;SDS011;9384;48.044;11.616;2022-12-11T08:36:02;20.17;;;10.53;;
18510;SDS011;9384;48.044;11.616;2022-12-11T08:38:29;18.70;;;10.30;;
18510;SDS011;9384;48.044;11.616;2022-12-11T08:40:56;19.07;;;10.03;;
18510;SDS011;9384;48.044;11.616;2022-12-11T08:43:23;21.67;;;11.20;;
18510;SDS011;9384;48.044;11.616;2022-12-11T08:45:50;23.47;;;10.90;;
18510;SDS011;9384;48.044;11.616;2022-12-11T08:48:17;22.03;;;11.00;;
18510;SDS011;9384;48.044;11.616;2022-12-11T08:50:44;21.10;;;10.87;;
18510;SDS011;9384;48.044;11.616;2022-12-11T08:53:12;18.70;;;9.53;;
18510;SDS011;9384;48.044;11.616;2022-12-11T08:55:39;19.50;;;10.73;;
18510;SDS011;9384;48.044;11.616;2022-12-11T08:58:06;19.03;;;9.53;;
18510;SDS011;9384;48.044;11.616;2022-12-11T09:00:33;16.50;;;9.53;;
18510;SDS011;9384;48.044;11.616;2022-12-11T09:03:00;18.17;;;9.93;;
18510;SDS011;9384;48.044;11.616;2022-12-11T09:05:27;20.17;;;9.77;;
18510;SDS011;9384;48.044;11.616;2022-12-11T09:07:54;21.40;;;10.90;;
18510;SDS011;9384;48.044;11.616;2022-12-11T09:10:22;20.93;;;10.70;;
18510;SDS011;9384;48.044;11.616;2022-12-11T09:12:49;19.87;;;9.93;;
18510;SDS011;9384;48.044;11.616;2022-12-11T09:15:16;20.17;;;10.93;;
18510;SDS011;9384;48.044;11.616;2022-12-11T09:17:43;21.67;;;10.77;;
18510;SDS011;9384;48.044;11.616;2022-12-11T09:20:10;20.03;;;10.07;;
18510;SDS011;9384;48.044;11.616;2022-12-11T09:22:37;20.27;;;10.60;;
18510;SDS011;9384;48.044;11.616;2022-12-11T09:25:04;19.87;;;10.23;;
18510;SDS011;9384;48.044;11.616;2022-12-11T09:27:34;20.37;;;10.20;;
18510;SDS011;9384;48.044;11.616;2022-12-11T09:30:01;21.30;;;10.97;;
18510;SDS011;9384;48.044;11.616;2022-12-11T09:32:27;15.83;;;9.10;;
18510;SDS011;9384;48.044;11.616;2022-12-11T09:34:54;20.30;;;10.73;;
18510;SDS011;9384;48.044;11.616;2022-12-11T09:37:21;17.30;;;9.77;;
18510;SDS011;9384;48.044;11.616;2022-12-11T09:39:48;16.50;;;9.73;;
18510;SDS011;9384;48.044;11.616;2022-12-11T09:42:17;17.10;;;9.00;;
18510;SDS011;9384;48.044;11.616;2022-12-11T09:44:51;12.93;;;8.30;;
18510;SDS011;9384;48.044;11.616;2022-12-11T09:47:22;13.97;;;8.50;;
18510;SDS011;9384;48.044;11.616;2022-12-11T09:49:53;17.80;;;8.67;;
18510;SDS011;9384;48.044;11.616;2022-12-11T09:52:28;13.33;;;8.20;;
18510;SDS011;9384;48.044;11.616;2022-12-11T09:54:59;12.43;;;7.83;;
18510;SDS011;9384;48.044;11.616;2022-12-11T09:57:34;14.37;;;7.73;;
18510;SDS011;9384;48.044;11.616;2022-12-11T10:00:13;12.57;;;8.17;;
18510;SDS011;9384;48.044;11.616;2022-12-11T10:02:56;10.07;;;6.90;;
18510;SDS011;9384;48.044;11.616;2022-12-11T10:05:34;11.20;;;7.33;;
18510;SDS011;9384;48.044;11.616;2022-12-11T10:08:05;10.57;;;6.70;;
18510;SDS011;9384;48.044;11.616;2022-12-11T10:10:39;13.20;;;7.67;;
18510;SDS011;9384;48.044;11.616;2022-12-11T10:13:11;12.03;;;7.40;;
18510;SDS011;9384;48.044;11.616;2022-12-11T10:15:50;11.70;;;7.43;;
18510;SDS011;9384;48.044;11.616;2022-12-11T10:18:21;10.77;;;6.80;;
18510;SDS011;9384;48.044;11.616;2022-12-11T10:20:50;11.53;;;7.40;;
18510;SDS011;9384;48.044;11.616;2022-12-11T10:23:20;13.50;;;7.30;;
18510;SDS011;9384;48.044;11.616;2022-12-11T10:25:55;10.23;;;6.57;;
18510;SDS011;9384;48.044;11.616;2022-12-11T10:28:28;12.50;;;6.80;;
18510;SDS011;9384;48.044;11.616;2022-12-11T10:30:57;10.47;;;6.77;;
18510;SDS011;9384;48.044;11.616;2022-12-11T10:33:30;10.90;;;6.97;;
18510;SDS011;9384;48.044;11.616;2022-12-11T10:36:03;9.83;;;6.87;;
18510;SDS011;9384;48.044;11.616;2022-12-11T10:38:33;10.07;;;6.30;;
18510;SDS011;9384;48.044;11.616;2022-12-11T10:41:09;8.90;;;6.53;;
18510;SDS011;9384;48.044;11.616;2022-12-11T10:43:38;8.83;;;6.40;;
18510;SDS011;9384;48.044;11.616;2022-12-11T10:46:14;11.13;;;7.17;;
18510;SDS011;9384;48.044;11.616;2022-12-11T10:48:45;9.57;;;6.50;;
18510;SDS011;9384;48.044;11.616;2022-12-11T10:51:12;10.90;;;6.27;;
18510;SDS011;9384;48.044;11.616;2022-12-11T10:53:40;11.37;;;7.37;;
18510;SDS011;9384;48.044;11.616;2022-12-11T10:56:08;10.53;;;6.43;;
18510;SDS011;9384;48.044;11.616;2022-12-11T10:58:37;10.23;;;6.53;;
18510;SDS011;9384;48.044;11.616;2022-12-11T11:01:14;11.67;;;6.87;;
18510;SDS011;9384;48.044;11.616;2022-12-11T11:03:51;13.73;;;7.67;;
18510;SDS011;9384;48.044;11.616;2022-12-11T11:06:22;10.43;;;6.60;;
18510;SDS011;9384;48.044;11.616;2022-12-11T11:08:50;10.50;;;6.70;;
18510;SDS011;9384;48.044;11.616;2022-12-11T11:11:25;10.87;;;6.87;;
18510;SDS011;9384;48.044;11.616;2022-12-11T11:14:07;11.67;;;6.87;;
18510;SDS011;9384;48.044;11.616;2022-12-11T11:16:42;9.43;;;6.43;;
18510;SDS011;9384;48.044;11.616;2022-12-11T11:19:19;10.93;;;7.00;;
18510;SDS011;9384;48.044;11.616;2022-12-11T11:21:49;8.80;;;6.50;;
18510;SDS011;9384;48.044;11.616;2022-12-11T11:24:27;10.50;;;7.00;;
18510;SDS011;9384;48.044;11.616;2022-12-11T11:26:58;12.70;;;7.27;;
18510;SDS011;9384;48.044;11.616;2022-12-11T11:29:27;9.97;;;6.53;;
18510;SDS011;9384;48.044;11.616;2022-12-11T11:31:57;11.20;;;6.90;;
18510;SDS011;9384;48.044;11.616;2022-12-11T11:34:38;11.30;;;6.80;;
18510;SDS011;9384;48.044;11.616;2022-12-11T11:37:14;10.70;;;6.73;;
18510;SDS011;9384;48.044;11.616;2022-12-11T11:39:50;10.50;;;6.83;;
18510;SDS011;9384;48.044;11.616;2022-12-11T11:42:22;9.17;;;6.60;;
18510;SDS011;9384;48.044;11.616;2022-12-11T11:45:04;8.77;;;5.90;;
18510;SDS011;9384;48.044;11.616;2022-12-11T11:47:39;8.07;;;5.70;;
18510;SDS011;9384;48.044;11.616;2022-12-11T11:50:15;9.17;;;6.80;;
18510;SDS011;9384;48.044;11.616;2022-12-11T11:52:47;8.70;;;6.63;;
18510;SDS011;9384;48.044;11.616;2022-12-11T11:55:19;8.37;;;6.60;;
18510;SDS011;9384;48.044;11.616;2022-12-11T11:58:01;15.03;;;6.93;;
18510;SDS011;9384;48.044;11.616;2022-12-11T12:00:32;9.80;;;7.03;;
18510;SDS011;9384;48.044;11.616;2022-12-11T12:03:01;10.27;;;6.57;;
18510;SDS011;9384;48.044;11.616;2022-12-11T12:05:35;14.93;;;6.83;;
18510;SDS011;9384;48.044;11.616;2022-12-11T12:08:08;10.37;;;6.97;;
18510;SDS011;9384;48.044;11.616;2022-12-11T12:10:41;10.03;;;6.30;;
18510;SDS011;9384;48.044;11.616;2022-12-11T12:13:14;10.60;;;6.77;;
18510;SDS011;9384;48.044;11.616;2022-12-11T12:15:53;9.00;;;6.27;;
18510;SDS011;9384;48.044;11.616;2022-12-11T12:18:23;10.37;;;7.13;;
18510;SDS011;9384;48.044;11.616;2022-12-11T12:21:03;11.83;;;7.27;;
18510;SDS011;9384;48.044;11.616;2022-12-11T12:23:46;12.07;;;7.30;;
18510;SDS011;9384;48.044;11.616;2022-12-11T12:26:22;11.57;;;7.47;;
18510;SDS011;9384;48.044;11.616;2022-12-11T12:28:55;10.33;;;6.87;;
18510;SDS011;9384;48.044;11.616;2022-12-11T12:31:38;8.73;;;6.27;;
18510;SDS011;9384;48.044;11.616;2022-12-11T12:34:18;10.70;;;6.63;;
18510;SDS011;9384;48.044;11.616;2022-12-11T12:36:59;11.73;;;7.07;;
18510;SDS011;9384;48.044;11.616;2022-12-11T12:39:32;13.87;;;8.00;;
18510;SDS011;9384;48.044;11.616;2022-12-11T12:42:08;13.43;;;7.47;;
18510;SDS011;9384;48.044;11.616;2022-12-11T12:44:45;10.93;;;7.00;;
18510;SDS011;9384;48.044;11.616;2022-12-11T12:47:18;7.63;;;6.03;;
18510;SDS011;9384;48.044;11.616;2022-12-11T12:49:47;8.90;;;6.27;;
18510;SDS011;9384;48.044;11.616;2022-12-11T12:52:16;8.47;;;5.60;;
18510;SDS011;9384;48.044;11.616;2022-12-11T12:54:46;8.67;;;5.87;;
18510;SDS011;9384;48.044;11.616;2022-12-11T12:57:31;6.07;;;5.40;;
18510;SDS011;9384;48.044;11.616;2022-12-11T12:59:59;10.13;;;5.67;;
18510;SDS011;9384;48.044;11.616;2022-12-11T13:02:27;7.33;;;5.50;;
18510;SDS011;9384;48.044;11.616;2022-12-11T13:04:56;7.50;;;5.37;;
18510;SDS011;9384;48.044;11.616;2022-12-11T13:07:26;10.07;;;5.93;;
18510;SDS011;9384;48.044;11.616;2022-12-11T13:09:56;16.37;;;7.17;;
18510;SDS011;9384;48.044;11.616;2022-12-11T13:12:39;9.77;;;6.00;;
18510;SDS011;9384;48.044;11.616;2022-12-11T13:15:28;9.40;;;6.17;;
18510;SDS011;9384;48.044;11.616;2022-12-11T13:17:58;11.97;;;6.70;;
18510;SDS011;9384;48.044;11.616;2022-12-11T13:20:28;8.80;;;6.20;;
18510;SDS011;9384;48.044;11.616;2022-12-11T13:23:14;10.23;;;6.20;;
18510;SDS011;9384;48.044;11.616;2022-12-11T13:25:47;11.57;;;6.27;;
18510;SDS011;9384;48.044;11.616;2022-12-11T13:28:24;9.87;;;6.07;;
18510;SDS011;9384;48.044;11.616;2022-12-11T13:33:53;9.80;;;6.47;;
18510;SDS011;9384;48.044;11.616;2022-12-11T13:36:27;8.77;;;6.93;;
18510;SDS011;9384;48.044;11.616;2022-12-11T13:38:57;13.93;;;7.53;;
18510;SDS011;9384;48.044;11.616;2022-12-11T13:41:27;10.43;;;6.87;;
18510;SDS011;9384;48.044;11.616;2022-12-11T13:43:58;9.50;;;6.20;;
18510;SDS011;9384;48.044;11.616;2022-12-11T13:46:26;11.47;;;6.80;;
18510;SDS011;9384;48.044;11.616;2022-12-11T13:48:56;14.27;;;6.90;;
18510;SDS011;9384;48.044;11.616;2022-12-11T13:51:27;9.40;;;6.73;;
18510;SDS011;9384;48.044;11.616;2022-12-11T13:54:03;9.43;;;6.57;;
18510;SDS011;9384;48.044;11.616;2022-12-11T13:56:32;11.63;;;6.97;;
18510;SDS011;9384;48.044;11.616;2022-12-11T13:58:59;9.87;;;6.90;;
18510;SDS011;9384;48.044;11.616;2022-12-11T14:01:27;9.30;;;6.40;;
18510;SDS011;9384;48.044;11.616;2022-12-11T14:03:58;11.50;;;6.63;;
18510;SDS011;9384;48.044;11.616;2022-12-11T14:06:29;14.17;;;7.63;;
18510;SDS011;9384;48.044;11.616;2022-12-11T14:08:58;12.70;;;6.90;;
18510;SDS011;9384;48.044;11.616;2022-12-11T14:11:28;10.37;;;6.90;;
18510;SDS011;9384;48.044;11.616;2022-12-11T14:13:59;14.57;;;7.97;;
18510;SDS011;9384;48.044;11.616;2022-12-11T14:16:28;7.70;;;6.27;;
18510;SDS011;9384;48.044;11.616;2022-12-11T14:18:57;9.47;;;6.73;;
18510;SDS011;9384;48.044;11.616;2022-12-11T14:21:29;11.90;;;7.30;;
18510;SDS011;9384;48.044;11.616;2022-12-11T14:23:56;11.43;;;7.50;;
18510;SDS011;9384;48.044;11.616;2022-12-11T14:26:25;11.70;;;7.83;;
18510;SDS011;9384;48.044;11.616;2022-12-11T14:28:54;12.17;;;7.63;;
18510;SDS011;9384;48.044;11.616;2022-12-11T14:31:23;10.77;;;7.63;;
18510;SDS011;9384;48.044;11.616;2022-12-11T14:33:55;13.97;;;7.37;;
18510;SDS011;9384;48.044;11.616;2022-12-11T14:36:26;9.13;;;6.97;;
18510;SDS011;9384;48.044;11.616;2022-12-11T14:38:56;10.23;;;7.17;;
18510;SDS011;9384;48.044;11.616;2022-12-11T14:41:28;10.53;;;7.50;;
18510;SDS011;9384;48.044;11.616;2022-12-11T14:44:01;11.30;;;7.60;;
18510;SDS011;9384;48.044;11.616;2022-12-11T14:46:33;9.57;;;6.03;;
18510;SDS011;9384;48.044;11.616;2022-12-11T14:49:05;9.60;;;6.70;;